METAR Data
IDs: Format: Raw Decoded Include TAF

Data at: 2006 UTC 31 Jan 2023

METAR for:KPHL (Philadelphia Intl, PA, US)
Text:KPHL 311954Z 35006KT 9SM -RASN BKN022 BKN027 OVC050 03/M01 A3021 RMK AO2 SNB27 SLP230 P0000 T00281006 $
Temperature: 2.8°C ( 37°F)
Dewpoint: -0.6°C ( 31°F) [RH = 78%]
Pressure (altimeter):30.21 inches Hg (1023.1 mb) [Sea level pressure: 1023.0 mb]
Winds:from the N (350 degrees) at 7 MPH (6 knots; 3.1 m/s)
Visibility: 9 sm ( 14 km)
Ceiling:2200 feet AGL
Clouds: broken clouds at 2200 feet AGL, broken clouds at 2700 feet AGL, overcast cloud deck at 5000 feet AGL
Weather:-RA -SN (light rain, light snow)
QC Flag:SOME DATA ABOVE MAY BE INACCURATE!!!"$" is an indication the sensor requires maintenance.